createdAt,value
2022-09-04T00:00:00.258Z,60
2022-09-04T00:05:00.319Z,60
2022-09-04T00:10:00.292Z,60
2022-09-04T00:15:00.190Z,60
2022-09-04T00:20:00.223Z,60
2022-09-04T00:25:00.216Z,60
2022-09-04T00:30:00.280Z,61
2022-09-04T00:35:00.292Z,61
2022-09-04T00:40:00.327Z,61
2022-09-04T00:45:00.280Z,61
2022-09-04T00:50:00.296Z,61
2022-09-04T00:55:00.185Z,61
2022-09-04T01:00:00.254Z,61
2022-09-04T01:05:00.252Z,61
2022-09-04T01:10:00.251Z,61
2022-09-04T01:15:00.171Z,62
2022-09-04T01:20:00.236Z,62
2022-09-04T01:25:00.181Z,62
2022-09-04T01:30:00.284Z,62
2022-09-04T01:35:00.196Z,62
2022-09-04T01:40:00.346Z,62
2022-09-04T01:45:00.305Z,62
2022-09-04T01:50:00.237Z,62
2022-09-04T01:55:00.195Z,62
2022-09-04T02:00:00.279Z,62
2022-09-04T02:05:01.496Z,62
2022-09-04T02:10:00.299Z,62
2022-09-04T02:15:00.190Z,63
2022-09-04T02:20:03.310Z,63
2022-09-04T02:25:05.169Z,63
2022-09-04T02:30:01.039Z,63
2022-09-04T02:35:00.155Z,63
2022-09-04T02:40:00.415Z,63
2022-09-04T02:45:00.157Z,63
2022-09-04T02:50:00.278Z,63
2022-09-04T02:55:00.187Z,64
2022-09-04T03:00:00.288Z,64
2022-09-04T03:05:00.201Z,64
2022-09-04T03:10:00.285Z,64
2022-09-04T03:15:00.193Z,64
2022-09-04T03:20:00.308Z,64
2022-09-04T03:25:00.184Z,64
2022-09-04T03:30:00.282Z,64
2022-09-04T03:35:00.148Z,64
2022-09-04T03:40:00.765Z,64
2022-09-04T03:45:00.256Z,64
2022-09-04T03:50:00.254Z,64
2022-09-04T03:55:00.214Z,65
2022-09-04T04:00:00.262Z,65
2022-09-04T04:05:00.390Z,65
2022-09-04T04:10:00.264Z,65
2022-09-04T04:15:00.257Z,65
2022-09-04T04:20:00.310Z,65
2022-09-04T04:25:00.247Z,65
2022-09-04T04:30:00.356Z,66
2022-09-04T04:35:00.229Z,66
2022-09-04T04:40:00.414Z,66
2022-09-04T04:45:00.267Z,66
2022-09-04T04:50:00.354Z,66
2022-09-04T04:55:00.243Z,66
2022-09-04T05:00:00.300Z,66
2022-09-04T05:05:00.223Z,66
2022-09-04T05:10:00.248Z,66
2022-09-04T05:15:00.276Z,66
2022-09-04T05:20:00.236Z,66
2022-09-04T05:25:00.257Z,66
2022-09-04T05:30:00.319Z,66
2022-09-04T05:35:00.174Z,67
2022-09-04T05:40:00.381Z,67
2022-09-04T05:45:00.183Z,67
2022-09-04T05:50:00.217Z,67
2022-09-04T05:55:00.194Z,67
2022-09-04T06:00:00.189Z,67
2022-09-04T06:05:00.294Z,67
2022-09-04T06:10:00.270Z,67
2022-09-04T06:15:00.197Z,67
2022-09-04T06:20:00.231Z,67
2022-09-04T06:25:00.243Z,66
2022-09-04T06:30:00.278Z,66
2022-09-04T06:35:00.296Z,66
2022-09-04T06:40:00.378Z,66
2022-09-04T06:45:00.269Z,67
2022-09-04T06:50:00.321Z,67
2022-09-04T06:55:00.308Z,67
2022-09-04T07:00:00.274Z,67
2022-09-04T07:05:00.313Z,67
2022-09-04T07:10:01.765Z,67
2022-09-04T07:15:00.199Z,67
2022-09-04T07:20:00.287Z,67
2022-09-04T07:25:00.246Z,68
2022-09-04T07:30:00.250Z,68
2022-09-04T07:35:00.195Z,68
2022-09-04T07:40:00.380Z,68
2022-09-04T07:45:00.202Z,68
2022-09-04T07:50:00.318Z,68
2022-09-04T07:55:00.219Z,68
2022-09-04T08:00:00.268Z,68
2022-09-04T08:05:00.261Z,68
2022-09-04T08:10:00.239Z,68
2022-09-04T08:15:00.226Z,69
2022-09-04T08:20:00.187Z,69
2022-09-04T08:25:00.127Z,69
2022-09-04T08:30:00.320Z,69
2022-09-04T08:35:00.223Z,69
2022-09-04T08:40:00.364Z,69
2022-09-04T08:45:00.273Z,70
2022-09-04T08:50:00.236Z,70
2022-09-04T08:55:00.169Z,70
2022-09-04T09:00:01.039Z,70
2022-09-04T09:05:00.251Z,69
2022-09-04T09:10:00.241Z,70
2022-09-04T09:15:00.242Z,70
2022-09-04T09:20:00.238Z,69
2022-09-04T09:25:00.190Z,69
2022-09-04T09:30:05.393Z,69
2022-09-04T09:35:00.189Z,69
2022-09-04T09:40:00.343Z,69
2022-09-04T09:45:00.225Z,69
2022-09-04T09:50:00.246Z,68
2022-09-04T09:55:00.250Z,68
2022-09-04T10:00:00.285Z,68
2022-09-04T10:05:00.265Z,68
2022-09-04T10:10:00.277Z,67
2022-09-04T10:15:00.280Z,67
2022-09-04T10:20:00.329Z,67
2022-09-04T10:25:00.294Z,67
2022-09-04T10:30:00.261Z,67
2022-09-04T10:35:00.209Z,67
2022-09-04T10:40:00.516Z,66
2022-09-04T10:45:00.228Z,66
2022-09-04T10:50:00.235Z,65
2022-09-04T10:55:00.235Z,65
2022-09-04T11:00:00.282Z,65
2022-09-04T11:05:00.225Z,65
2022-09-04T11:10:00.233Z,64
2022-09-04T11:15:00.234Z,64
2022-09-04T11:20:00.259Z,64
2022-09-04T11:25:00.221Z,63
2022-09-04T11:30:00.246Z,63
2022-09-04T11:35:00.221Z,63
2022-09-04T11:40:00.873Z,62
2022-09-04T11:45:00.310Z,61
2022-09-04T11:50:00.283Z,61
2022-09-04T11:55:00.223Z,61
2022-09-04T12:00:00.346Z,60
2022-09-04T12:05:00.232Z,60
2022-09-04T12:10:00.952Z,60
2022-09-04T12:15:07.300Z,59
2022-09-04T12:20:00.269Z,59
2022-09-04T12:25:00.177Z,59
2022-09-04T12:30:00.250Z,59
2022-09-04T12:35:00.185Z,59
2022-09-04T12:40:00.385Z,59
2022-09-04T12:45:00.222Z,59
2022-09-04T12:50:00.267Z,59
2022-09-04T12:55:00.133Z,58
2022-09-04T13:00:00.270Z,58
2022-09-04T13:05:00.243Z,58
2022-09-04T13:10:00.300Z,57
2022-09-04T13:15:00.240Z,57
2022-09-04T13:20:00.287Z,57
2022-09-04T13:25:00.310Z,57
2022-09-04T13:30:03.281Z,56
2022-09-04T13:35:00.231Z,57
2022-09-04T13:40:00.461Z,57
2022-09-04T13:45:00.178Z,56
2022-09-04T13:50:00.269Z,55
2022-09-04T13:55:00.262Z,55
2022-09-04T14:00:00.293Z,54
2022-09-04T14:05:00.196Z,54
2022-09-04T14:10:00.304Z,54
2022-09-04T14:15:00.201Z,54
2022-09-04T14:20:00.216Z,53
2022-09-04T14:25:00.191Z,53
2022-09-04T14:30:00.281Z,53
2022-09-04T14:35:00.266Z,53
2022-09-04T14:40:00.354Z,53
2022-09-04T14:45:00.195Z,53
2022-09-04T14:50:00.329Z,53
2022-09-04T14:55:00.226Z,52
2022-09-04T15:00:00.313Z,52
2022-09-04T15:05:00.263Z,52
2022-09-04T15:10:00.240Z,52
2022-09-04T15:15:00.199Z,52
2022-09-04T15:20:00.251Z,52
2022-09-04T15:25:00.243Z,52
2022-09-04T15:30:00.304Z,52
2022-09-04T15:35:00.138Z,52
2022-09-04T15:40:00.416Z,52
2022-09-04T15:45:00.136Z,52
2022-09-04T15:50:00.407Z,53
2022-09-04T15:55:00.239Z,52
2022-09-04T16:00:00.362Z,53
2022-09-04T16:05:00.165Z,53
2022-09-04T16:10:00.497Z,53
2022-09-04T16:15:00.248Z,53
2022-09-04T16:20:00.421Z,53
2022-09-04T16:25:00.209Z,53
2022-09-04T16:30:00.312Z,53
2022-09-04T16:35:00.297Z,53
2022-09-04T16:40:00.575Z,53
2022-09-04T16:45:00.255Z,53
2022-09-04T16:50:00.309Z,54
2022-09-04T16:55:00.231Z,54
2022-09-04T17:00:00.274Z,54
2022-09-04T17:05:00.186Z,54
2022-09-04T17:10:00.236Z,54
2022-09-04T17:15:00.214Z,54
2022-09-04T17:20:00.269Z,54
2022-09-04T17:28:57.865Z,54
2022-09-04T17:30:00.274Z,54
2022-09-04T17:40:32.741Z,55
2022-09-04T17:40:50.561Z,55
2022-09-04T17:45:00.149Z,55
2022-09-04T17:50:00.316Z,55
2022-09-04T17:55:00.222Z,55
2022-09-04T18:00:00.318Z,56
2022-09-04T18:05:00.135Z,56
2022-09-04T18:10:00.310Z,56
2022-09-04T18:15:09.983Z,57
2022-09-04T18:20:00.282Z,57
2022-09-04T18:25:00.228Z,57
2022-09-04T18:33:55.654Z,57
2022-09-04T18:37:25.854Z,57
2022-09-04T18:40:00.376Z,58
2022-09-04T18:50:38.514Z,58
2022-09-04T18:50:53.512Z,58
2022-09-04T18:55:00.136Z,58
2022-09-04T19:00:08.854Z,58
2022-09-04T19:05:00.170Z,58
2022-09-04T19:10:00.326Z,59
2022-09-04T19:15:00.249Z,59
2022-09-04T19:20:00.292Z,59
2022-09-04T19:25:00.251Z,59
2022-09-04T19:30:03.538Z,59
2022-09-04T19:35:00.208Z,60
2022-09-04T19:45:56.370Z,59
2022-09-04T19:46:15.405Z,60
2022-09-04T19:53:19.017Z,60
2022-09-04T19:55:23.288Z,60
2022-09-04T20:00:26.815Z,60
2022-09-04T20:05:00.306Z,60
2022-09-04T20:10:00.267Z,61
2022-09-04T20:15:00.231Z,61
2022-09-04T20:20:00.245Z,61
2022-09-04T20:25:02.263Z,61
2022-09-04T20:30:00.306Z,61
2022-09-04T20:35:13.450Z,61
2022-09-04T20:40:00.365Z,62
2022-09-04T20:46:50.024Z,62
2022-09-04T20:52:53.853Z,62
2022-09-04T20:55:00.176Z,62
2022-09-04T21:03:08.777Z,62
2022-09-04T21:05:00.313Z,62
2022-09-04T21:10:00.324Z,63
2022-09-04T21:15:00.264Z,63
2022-09-04T21:20:00.212Z,63
2022-09-04T21:25:00.224Z,63
2022-09-04T21:30:00.277Z,63
2022-09-04T21:35:00.214Z,63
2022-09-04T21:40:00.375Z,63
2022-09-04T21:45:00.189Z,64
2022-09-04T21:50:00.285Z,64
2022-09-04T21:57:22.503Z,64
2022-09-04T22:02:36.084Z,65
2022-09-04T22:05:00.466Z,65
2022-09-04T22:13:40.330Z,65
2022-09-04T22:15:00.195Z,65
2022-09-04T22:20:00.276Z,65
2022-09-04T22:25:00.260Z,65
2022-09-04T22:30:00.262Z,65
2022-09-04T22:35:00.274Z,65
2022-09-04T22:40:00.421Z,66
2022-09-04T22:45:10.139Z,66
2022-09-04T22:50:00.205Z,66
2022-09-04T22:55:00.244Z,66
2022-09-04T23:00:00.310Z,66
2022-09-04T23:05:00.228Z,66
2022-09-04T23:13:53.395Z,67
2022-09-04T23:15:08.373Z,67
2022-09-04T23:26:38.630Z,67
2022-09-04T23:26:42.534Z,67
2022-09-04T23:30:00.330Z,67
2022-09-04T23:35:14.351Z,67
2022-09-04T23:40:00.438Z,67
2022-09-04T23:45:00.168Z,67
2022-09-04T23:50:00.296Z,67
2022-09-04T23:55:00.187Z,67
